Terminal Aerodrome Forecast
Issued by NWS

Home | Current Version | Previous Version | Text Only | Print | Product List | Glossary On
Versions: 1 2 3 4 5 6 7 8 9 10 11 12 13 14 15 16 17 18 19 20 21 22 23 24
000
FTUS41 KALY 260500
TAFPSF
TAF
KPSF 260539Z 2606/2706 31006KT P6SM SCT035 OVC130
     FM261100 32005KT P6SM VCSH SCT030 OVC070
     FM261300 33004KT 2SM -SN BR OVC012
     FM261500 35005KT 3/4SM -SN BR VV006
     FM261700 01008KT 1/2SM SN FG VV002
     FM270100 34011KT 1 1/2SM -SN BR OVC006=

USA.gov is the U.S. government's official web portal to all federal, state and local government web resources and services.